Time;durP1;ratioP1;P1;durP2;ratioP2;P2;SDS_P1;SDS_P2;PMS_P1;PMS_P2;Temp;Humidity;BMP_temperature;BMP_pressure;BME280_temperature;BME280_humidity;BME280_pressure;Samples;Min_cycle;Max_cycle;Signal;HPM_P1;HPM_P2
2023/03/27 00:01:18;;;;;;;13.70;2.00;;;7.40;99.90;;;;;;7276265;19;20188;-75
2023/03/27 00:03:48;;;;;;;10.73;1.53;;;7.50;99.90;;;;;;7275861;19;20394;-75
2023/03/27 00:06:16;;;;;;;7.90;1.70;;;7.50;99.90;;;;;;7277184;19;20200;-76
2023/03/27 00:08:47;;;;;;;12.13;2.00;;;7.50;99.90;;;;;;7275424;19;20195;-75
2023/03/27 00:11:13;;;;;;;12.00;1.83;;;7.70;99.90;;;;;;7274946;19;20206;-75
2023/03/27 00:13:40;;;;;;;10.17;1.63;;;7.60;99.90;;;;;;7275430;19;20198;-75
2023/03/27 00:16:06;;;;;;;15.10;1.80;;;7.50;99.90;;;;;;7277551;19;20523;-75
2023/03/27 00:18:32;;;;;;;12.67;1.67;;;7.50;99.90;;;;;;7274875;19;20192;-75
2023/03/27 00:20:59;;;;;;;8.83;1.60;;;7.60;99.90;;;;;;7275163;19;20192;-75
2023/03/27 00:23:28;;;;;;;8.57;1.57;;;7.60;99.90;;;;;;7281034;19;20703;-75
2023/03/27 00:25:58;;;;;;;12.13;1.70;;;7.50;99.90;;;;;;7295827;19;20592;-75
2023/03/27 00:28:29;;;;;;;10.23;1.80;;;7.60;99.90;;;;;;7296175;19;20189;-75
2023/03/27 00:30:56;;;;;;;10.63;1.73;;;7.50;99.90;;;;;;7271990;19;20197;-75
2023/03/27 00:33:23;;;;;;;11.67;1.63;;;7.60;99.90;;;;;;7304285;19;20189;-75
2023/03/27 00:35:50;;;;;;;9.73;1.83;;;7.70;99.90;;;;;;7281759;19;20191;-76
2023/03/27 00:38:17;;;;;;;8.10;1.60;;;7.80;99.90;;;;;;7289308;19;20234;-75
2023/03/27 00:40:44;;;;;;;11.20;1.90;;;7.70;99.90;;;;;;7286993;19;20189;-76
2023/03/27 00:43:32;;;;;;;15.40;2.30;;;7.80;99.90;;;;;;7289344;19;20212;-76
2023/03/27 00:46:06;;;;;;;12.40;2.20;;;7.80;99.90;;;;;;7266250;19;20511;-76
2023/03/27 00:48:35;;;;;;;17.37;1.63;;;7.90;99.90;;;;;;7286798;19;20235;-75
2023/03/27 00:51:04;;;;;;;15.27;1.83;;;8.00;99.90;;;;;;7288702;19;20546;-76
2023/03/27 00:53:31;;;;;;;10.57;1.73;;;8.20;99.90;;;;;;7283413;19;20193;-75
2023/03/27 00:56:00;;;;;;;8.03;1.60;;;8.10;99.90;;;;;;7286673;19;20186;-76
2023/03/27 00:58:35;;;;;;;12.63;1.97;;;8.10;99.90;;;;;;7287129;19;20605;-76
2023/03/27 01:01:01;;;;;;;12.07;1.73;;;8.10;99.90;;;;;;7287060;19;20633;-76
2023/03/27 01:03:31;;;;;;;11.47;1.80;;;8.20;99.90;;;;;;7284491;19;20249;-76
2023/03/27 01:06:00;;;;;;;14.30;1.80;;;8.20;99.90;;;;;;7287885;19;20183;-76
2023/03/27 01:08:30;;;;;;;11.80;1.30;;;8.20;99.90;;;;;;7286939;19;20644;-75
2023/03/27 01:11:20;;;;;;;12.40;1.60;;;8.20;99.90;;;;;;7286410;19;20189;-75
2023/03/27 01:14:26;;;;;;;11.27;1.77;;;7.90;99.90;;;;;;7286247;19;20201;-76
2023/03/27 01:17:19;;;;;;;8.03;1.40;;;7.70;99.90;;;;;;7184411;19;2004339;-74
2023/03/27 01:20:04;;;;;;;9.30;1.43;;;7.30;99.90;;;;;;7183885;19;2005092;-74
2023/03/27 01:22:48;;;;;;;12.00;1.80;;;7.30;99.90;;;;;;7184497;19;2004610;-74
2023/03/27 01:25:33;;;;;;;8.67;1.70;;;7.40;99.90;;;;;;7287082;19;20217;-73
2023/03/27 01:28:20;;;;;;;11.30;1.90;;;7.30;99.90;;;;;;7184052;19;2005002;-74
2023/03/27 01:30:51;;;;;;;11.13;1.63;;;7.20;99.90;;;;;;7285417;19;20190;-74
2023/03/27 01:33:54;;;;;;;9.00;1.40;;;7.00;99.90;;;;;;7287122;19;20211;-74
2023/03/27 01:36:39;;;;;;;9.27;1.80;;;7.00;99.90;;;;;;7184054;19;2007074;-74
2023/03/27 01:39:16;;;;;;;9.93;1.90;;;7.20;99.90;;;;;;7182671;19;2004716;-74
2023/03/27 01:41:57;;;;;;;10.43;1.50;;;7.20;99.90;;;;;;7284878;19;20263;-75
2023/03/27 01:44:31;;;;;;;11.90;1.50;;;7.30;99.90;;;;;;7287360;19;20216;-75
2023/03/27 01:47:03;;;;;;;10.70;1.63;;;7.40;99.90;;;;;;7263967;19;20210;-75
2023/03/27 01:49:41;;;;;;;10.77;1.60;;;7.50;99.90;;;;;;7285246;19;20223;-75
2023/03/27 01:52:13;;;;;;;7.13;1.57;;;7.50;99.90;;;;;;7284341;19;20217;-75
2023/03/27 01:54:46;;;;;;;6.27;1.20;;;7.40;99.90;;;;;;7286127;19;20196;-74
2023/03/27 01:57:23;;;;;;;9.50;1.63;;;7.40;99.90;;;;;;7286167;19;20198;-75
2023/03/27 02:00:09;;;;;;;7.33;1.60;;;7.40;99.90;;;;;;7285545;19;20191;-75
2023/03/27 02:02:54;;;;;;;7.90;1.50;;;7.50;99.90;;;;;;7185467;19;2004634;-75
2023/03/27 02:05:29;;;;;;;7.30;1.37;;;7.60;99.90;;;;;;7286536;19;20199;-75
2023/03/27 02:08:03;;;;;;;9.00;1.40;;;7.70;99.90;;;;;;7275520;19;20188;-75
2023/03/27 02:10:35;;;;;;;8.30;1.37;;;7.70;99.90;;;;;;7283576;19;20188;-75
2023/03/27 02:13:17;;;;;;;5.40;1.13;;;7.70;99.90;;;;;;7285236;19;20261;-75
2023/03/27 02:15:44;;;;;;;8.03;1.57;;;7.70;99.90;;;;;;7284190;19;20213;-75
2023/03/27 02:18:17;;;;;;;7.93;1.30;;;7.70;99.90;;;;;;7286110;19;20531;-75
2023/03/27 02:20:44;;;;;;;9.80;1.37;;;7.60;99.90;;;;;;7284976;19;20542;-75
2023/03/27 02:23:11;;;;;;;7.20;1.07;;;7.60;99.90;;;;;;7285132;19;20549;-75
2023/03/27 02:25:39;;;;;;;9.07;1.53;;;7.50;99.90;;;;;;7284954;19;20715;-75
2023/03/27 02:28:36;;;;;;;7.70;1.47;;;7.60;99.90;;;;;;7282285;19;20185;-75
2023/03/27 02:31:35;;;;;;;11.23;1.70;;;7.60;99.90;;;;;;7181105;19;2006260;-75
2023/03/27 02:34:12;;;;;;;10.57;2.10;;;7.50;99.90;;;;;;7181729;19;2006282;-75
2023/03/27 02:36:44;;;;;;;8.03;1.50;;;7.60;99.90;;;;;;7284242;19;20188;-75
2023/03/27 02:39:20;;;;;;;11.93;1.63;;;7.60;99.90;;;;;;7284322;19;20187;-75
2023/03/27 02:41:58;;;;;;;6.17;1.33;;;7.70;99.90;;;;;;7282924;19;20206;-76
2023/03/27 02:44:50;;;;;;;7.37;1.57;;;7.70;99.90;;;;;;7180554;19;2004802;-75
2023/03/27 02:47:35;;;;;;;9.33;1.47;;;7.60;99.90;;;;;;7282169;19;20716;-75
2023/03/27 02:50:16;;;;;;;14.23;1.90;;;7.60;99.90;;;;;;7180673;19;2004561;-75
2023/03/27 02:52:46;;;;;;;7.87;1.53;;;7.70;99.90;;;;;;7280365;19;20189;-75
2023/03/27 02:55:25;;;;;;;10.47;1.90;;;7.70;99.90;;;;;;7283379;19;20654;-75
2023/03/27 02:57:58;;;;;;;9.13;1.60;;;7.70;99.90;;;;;;7284403;19;20248;-75
2023/03/27 03:00:49;;;;;;;11.83;2.10;;;7.60;99.90;;;;;;7181091;19;2004585;-75
2023/03/27 03:03:43;;;;;;;17.60;2.07;;;7.60;99.90;;;;;;7180728;19;2004645;-75
2023/03/27 03:06:28;;;;;;;13.57;1.77;;;7.50;99.90;;;;;;7271049;19;20195;-75
2023/03/27 03:09:06;;;;;;;7.63;1.57;;;7.50;99.90;;;;;;7294080;19;20289;-75
2023/03/27 03:11:43;;;;;;;11.63;2.20;;;7.50;99.90;;;;;;7282809;19;20211;-74
2023/03/27 03:14:09;;;;;;;9.17;2.17;;;7.40;99.90;;;;;;7283155;19;20203;-74
2023/03/27 03:16:35;;;;;;;11.47;2.40;;;7.40;99.90;;;;;;7283363;19;20185;-75
2023/03/27 03:19:01;;;;;;;12.63;2.20;;;7.40;99.90;;;;;;7281613;19;20620;-75
2023/03/27 03:21:27;;;;;;;10.30;1.93;;;7.40;99.90;;;;;;7282947;19;20231;-75
2023/03/27 03:23:53;;;;;;;13.43;2.40;;;7.40;99.90;;;;;;7304715;19;20714;-75
2023/03/27 03:26:20;;;;;;;8.83;2.27;;;7.50;99.90;;;;;;7282065;19;20190;-75
2023/03/27 03:28:46;;;;;;;13.83;2.60;;;7.40;99.90;;;;;;7281410;19;20559;-75
2023/03/27 03:31:13;;;;;;;8.70;2.03;;;7.40;99.90;;;;;;7282643;19;20560;-75
2023/03/27 03:33:41;;;;;;;9.90;2.10;;;7.50;99.90;;;;;;7280936;19;20200;-74
2023/03/27 03:36:07;;;;;;;19.30;2.50;;;7.40;99.90;;;;;;7282602;19;20193;-75
2023/03/27 03:38:35;;;;;;;6.97;2.30;;;7.50;99.90;;;;;;7281673;19;20260;-75
2023/03/27 03:41:03;;;;;;;11.10;2.40;;;7.40;99.90;;;;;;7280910;19;20189;-74
2023/03/27 03:43:30;;;;;;;11.53;2.10;;;7.40;99.90;;;;;;7282180;19;20512;-75
2023/03/27 03:45:57;;;;;;;9.23;2.40;;;7.40;99.90;;;;;;7281478;19;20189;-75
2023/03/27 03:48:25;;;;;;;17.37;2.50;;;7.40;99.90;;;;;;7301414;19;20667;-75
2023/03/27 03:50:51;;;;;;;9.87;2.50;;;7.40;99.90;;;;;;7281643;19;20973;-76
2023/03/27 03:53:20;;;;;;;10.60;3.03;;;7.50;99.90;;;;;;7281987;19;20204;-76
2023/03/27 03:55:48;;;;;;;16.13;3.33;;;7.50;99.90;;;;;;7279635;19;20225;-76
2023/03/27 03:58:14;;;;;;;17.13;3.67;;;7.50;99.90;;;;;;7281641;19;20203;-75
2023/03/27 04:00:40;;;;;;;10.43;3.50;;;7.50;99.90;;;;;;7281581;19;20185;-76
2023/03/27 04:03:15;;;;;;;13.13;2.90;;;7.50;99.90;;;;;;7282018;19;20203;-75
2023/03/27 04:05:41;;;;;;;9.47;2.93;;;7.60;99.90;;;;;;7287571;19;20179;-75
2023/03/27 04:08:07;;;;;;;9.17;2.57;;;7.60;99.90;;;;;;7289630;19;20642;-76
2023/03/27 04:10:51;;;;;;;12.80;2.90;;;7.60;99.90;;;;;;7290115;19;20196;-75
2023/03/27 04:13:37;;;;;;;12.27;3.17;;;7.50;99.90;;;;;;7186187;19;2004435;-75
2023/03/27 04:16:14;;;;;;;18.33;3.50;;;7.50;99.90;;;;;;7287667;19;20616;-75
2023/03/27 04:18:48;;;;;;;10.13;2.70;;;7.50;99.90;;;;;;7288415;19;20201;-75
2023/03/27 04:21:17;;;;;;;11.80;2.77;;;7.40;99.90;;;;;;7288007;19;20189;-75
2023/03/27 04:23:45;;;;;;;11.47;2.83;;;7.40;99.90;;;;;;7288886;19;20200;-75
2023/03/27 04:26:14;;;;;;;11.63;2.73;;;7.50;99.90;;;;;;7287432;19;20189;-75
2023/03/27 04:29:09;;;;;;;9.67;2.67;;;7.40;99.90;;;;;;7185985;19;2004648;-76
2023/03/27 04:32:08;;;;;;;10.57;2.40;;;7.40;99.90;;;;;;7185520;19;2004717;-75
2023/03/27 04:34:40;;;;;;;9.83;2.40;;;7.30;99.90;;;;;;7288183;19;20709;-75
2023/03/27 04:37:29;;;;;;;10.47;2.23;;;7.30;99.90;;;;;;7267082;19;20278;-75
2023/03/27 04:40:13;;;;;;;12.17;2.40;;;7.10;99.90;;;;;;7286891;19;20663;-75
2023/03/27 04:42:43;;;;;;;10.90;2.60;;;7.10;99.90;;;;;;7289141;19;20196;-75
2023/03/27 04:45:13;;;;;;;9.40;2.30;;;7.20;99.90;;;;;;7288887;19;20544;-75
2023/03/27 04:47:41;;;;;;;9.73;2.50;;;7.10;99.90;;;;;;7287793;19;20212;-75
2023/03/27 04:50:09;;;;;;;12.97;3.13;;;7.10;99.90;;;;;;7286182;19;20932;-75
2023/03/27 04:52:35;;;;;;;11.00;2.80;;;7.10;99.90;;;;;;7285534;19;20189;-76
2023/03/27 04:55:03;;;;;;;14.43;3.00;;;7.00;99.90;;;;;;7287847;19;20243;-76
2023/03/27 04:57:30;;;;;;;15.77;3.17;;;7.10;99.90;;;;;;7286955;19;20263;-76
2023/03/27 05:00:00;;;;;;;10.90;2.67;;;7.10;99.90;;;;;;7288484;19;20205;-75
2023/03/27 05:02:46;;;;;;;14.40;3.23;;;6.90;99.90;;;;;;7286766;19;20185;-76
2023/03/27 05:05:33;;;;;;;7.40;2.63;;;6.90;99.90;;;;;;7183228;19;2004460;-75
2023/03/27 05:08:03;;;;;;;9.13;3.80;;;6.90;99.90;;;;;;7281626;19;20683;-76
2023/03/27 05:10:29;;;;;;;10.27;3.27;;;6.90;99.90;;;;;;7287340;19;20173;-75
2023/03/27 05:12:55;;;;;;;10.97;3.37;;;7.00;99.90;;;;;;7306790;19;20196;-75
2023/03/27 05:15:21;;;;;;;10.70;3.10;;;7.10;99.90;;;;;;7308474;19;20193;-75
2023/03/27 05:17:53;;;;;;;11.23;3.20;;;7.00;99.90;;;;;;7285849;19;20185;-75
2023/03/27 05:20:21;;;;;;;10.40;3.60;;;7.00;99.90;;;;;;7285617;19;20193;-75
2023/03/27 05:22:48;;;;;;;14.63;4.43;;;6.90;99.90;;;;;;7284349;19;20775;-75
2023/03/27 05:25:23;;;;;;;12.00;4.80;;;6.90;99.90;;;;;;7288696;19;20182;-75
2023/03/27 05:27:51;;;;;;;10.67;4.10;;;6.90;99.90;;;;;;7283543;19;20229;-75
2023/03/27 05:30:19;;;;;;;12.77;3.60;;;6.90;99.90;;;;;;7286187;19;20314;-75
2023/03/27 05:32:50;;;;;;;9.90;2.20;;;6.80;99.90;;;;;;7286623;19;20241;-75
2023/03/27 05:35:27;;;;;;;8.17;2.00;;;6.70;99.90;;;;;;7271682;19;20185;-75
2023/03/27 05:37:54;;;;;;;8.63;2.07;;;6.50;99.90;;;;;;7309025;19;20508;-75
2023/03/27 05:40:27;;;;;;;7.23;2.33;;;6.70;99.90;;;;;;7281434;19;20230;-75
2023/03/27 05:42:55;;;;;;;9.60;1.97;;;6.80;99.90;;;;;;7306949;19;20181;-76
2023/03/27 05:45:25;;;;;;;6.30;1.93;;;6.90;99.90;;;;;;7287316;19;20199;-76
2023/03/27 05:47:53;;;;;;;9.37;2.37;;;6.90;99.90;;;;;;7286091;19;20317;-77
2023/03/27 05:50:22;;;;;;;6.27;1.80;;;6.90;99.90;;;;;;7284720;19;20676;-77
2023/03/27 05:53:05;;;;;;;9.30;2.10;;;6.90;99.90;;;;;;7283687;19;20297;-76
2023/03/27 05:55:36;;;;;;;11.57;2.30;;;6.80;99.90;;;;;;7182848;19;2004923;-76
2023/03/27 05:58:02;;;;;;;5.63;2.40;;;6.80;99.90;;;;;;7286414;19;20191;-76
2023/03/27 06:00:31;;;;;;;8.23;2.90;;;6.90;99.90;;;;;;7285114;19;20192;-76
2023/03/27 06:03:00;;;;;;;11.63;2.80;;;7.00;99.90;;;;;;7286217;19;20298;-76
2023/03/27 06:05:47;;;;;;;10.80;2.70;;;7.00;99.90;;;;;;7286928;19;20209;-76
2023/03/27 06:08:13;;;;;;;12.40;2.73;;;7.30;99.90;;;;;;7285332;19;20227;-77
2023/03/27 06:10:43;;;;;;;8.90;2.57;;;7.40;99.90;;;;;;7285109;19;20189;-76
2023/03/27 06:13:35;;;;;;;8.33;2.60;;;7.40;99.90;;;;;;7182428;19;2004571;-76
2023/03/27 06:16:06;;;;;;;9.47;2.77;;;7.20;99.90;;;;;;7285930;19;20192;-77
2023/03/27 06:18:41;;;;;;;9.20;3.10;;;6.80;99.90;;;;;;7286001;19;20228;-76
2023/03/27 06:21:09;;;;;;;13.67;3.50;;;6.80;99.90;;;;;;7284131;19;20536;-76
2023/03/27 06:23:35;;;;;;;8.37;3.27;;;7.00;99.90;;;;;;7285223;19;20227;-76
2023/03/27 06:26:02;;;;;;;11.97;4.67;;;7.20;99.90;;;;;;7283269;19;20186;-76
2023/03/27 06:28:29;;;;;;;9.93;3.70;;;7.30;99.90;;;;;;7282039;19;20193;-76
2023/03/27 06:30:56;;;;;;;9.87;3.67;;;7.20;99.90;;;;;;7297757;19;20589;-76
2023/03/27 06:33:55;;;;;;;11.50;4.07;;;7.10;99.90;;;;;;7284705;19;20193;-76
2023/03/27 06:36:50;;;;;;;12.57;4.23;;;7.20;99.90;;;;;;7182541;19;2004373;-76
2023/03/27 06:39:16;;;;;;;10.80;4.20;;;7.30;99.90;;;;;;7284295;19;20198;-76
2023/03/27 06:41:48;;;;;;;16.10;4.60;;;7.40;99.90;;;;;;7285438;19;20231;-76
2023/03/27 06:44:27;;;;;;;12.77;4.57;;;7.20;99.90;;;;;;7263275;19;20221;-76
2023/03/27 06:47:03;;;;;;;11.80;3.67;;;7.50;99.90;;;;;;7283332;19;20196;-77
2023/03/27 06:49:49;;;;;;;11.43;3.80;;;8.30;99.90;;;;;;7283604;19;20218;-76
2023/03/27 06:52:20;;;;;;;12.00;3.40;;;10.50;99.90;;;;;;7284978;19;20200;-76
2023/03/27 06:54:46;;;;;;;11.37;3.03;;;12.10;99.90;;;;;;7284696;19;20513;-76
2023/03/27 06:57:14;;;;;;;13.10;3.30;;;13.50;99.90;;;;;;7284187;19;20213;-77
2023/03/27 06:59:53;;;;;;;8.90;3.13;;;14.50;99.90;;;;;;7284155;19;20181;-76
2023/03/27 07:02:23;;;;;;;10.43;2.93;;;16.00;99.90;;;;;;7285469;19;20777;-76
2023/03/27 07:04:51;;;;;;;8.93;3.10;;;17.30;99.90;;;;;;7285732;19;20293;-75
2023/03/27 07:07:20;;;;;;;12.07;3.30;;;17.70;99.90;;;;;;7283904;19;20768;-75
2023/03/27 07:09:48;;;;;;;10.20;2.90;;;18.50;99.90;;;;;;7285843;19;20190;-75
2023/03/27 07:12:15;;;;;;;9.50;2.87;;;18.10;99.90;;;;;;7284503;19;20207;-75
2023/03/27 07:14:44;;;;;;;10.30;3.10;;;18.20;99.90;;;;;;7281885;19;20200;-75
2023/03/27 07:17:09;;;;;;;10.50;2.90;;;17.50;99.90;;;;;;7284839;19;20189;-76
2023/03/27 07:19:47;;;;;;;9.57;2.43;;;17.00;99.90;;;;;;7284296;19;20189;-76
2023/03/27 07:22:14;;;;;;;10.70;2.53;;;16.70;99.90;;;;;;7284261;19;20184;-76
2023/03/27 07:24:40;;;;;;;8.70;2.80;;;16.80;99.90;;;;;;7283772;19;20268;-76
2023/03/27 07:27:08;;;;;;;10.50;2.77;;;17.50;99.90;;;;;;7282500;19;20185;-75
2023/03/27 07:29:35;;;;;;;9.00;2.50;;;18.50;99.90;;;;;;7282564;19;20677;-76
2023/03/27 07:32:02;;;;;;;8.83;2.20;;;17.80;99.90;;;;;;7282813;19;20198;-75
2023/03/27 07:34:37;;;;;;;8.77;2.33;;;17.80;99.90;;;;;;7282948;19;20262;-76
2023/03/27 07:37:23;;;;;;;6.57;1.97;;;18.10;99.90;;;;;;7284697;19;20189;-76
2023/03/27 07:40:20;;;;;;;9.47;2.00;;;17.60;99.90;;;;;;7179683;19;2004663;-76
2023/03/27 07:42:54;;;;;;;9.60;2.20;;;16.80;99.90;;;;;;7283585;19;20180;-75
2023/03/27 07:45:22;;;;;;;6.10;2.13;;;15.30;99.90;;;;;;7284296;19;20601;-76
2023/03/27 07:47:51;;;;;;;8.30;1.70;;;14.90;99.90;;;;;;7283330;19;20554;-76
2023/03/27 07:50:20;;;;;;;8.90;1.97;;;13.90;99.90;;;;;;7282522;19;20205;-75
2023/03/27 07:52:48;;;;;;;13.07;2.90;;;12.70;99.90;;;;;;7281573;19;20232;-74
2023/03/27 07:55:18;;;;;;;8.40;1.80;;;12.20;99.90;;;;;;7282949;19;20198;-76
2023/03/27 07:57:54;;;;;;;8.40;2.13;;;11.30;99.90;;;;;;7283806;19;20579;-76
2023/03/27 08:00:21;;;;;;;9.80;1.70;;;10.30;99.90;;;;;;7283490;19;20207;-75
2023/03/27 08:03:10;;;;;;;7.10;1.97;;;10.40;99.90;;;;;;7261827;19;20227;-76
2023/03/27 08:05:37;;;;;;;6.93;1.30;;;10.20;99.90;;;;;;7281864;19;20645;-75
2023/03/27 08:08:08;;;;;;;7.07;1.33;;;9.10;99.90;;;;;;7282388;19;20562;-75
2023/03/27 08:10:46;;;;;;;8.20;1.30;;;8.80;99.90;;;;;;7282819;19;20185;-75
2023/03/27 08:13:14;;;;;;;10.23;1.60;;;8.30;99.90;;;;;;7280388;19;20546;-76
2023/03/27 08:15:40;;;;;;;9.00;1.00;;;10.10;99.90;;;;;;7282705;19;20210;-76
2023/03/27 08:18:18;;;;;;;4.90;1.10;;;11.70;99.90;;;;;;7282499;19;20195;-76
2023/03/27 08:20:44;;;;;;;6.87;1.20;;;12.40;99.90;;;;;;7282208;19;20193;-77
2023/03/27 08:23:10;;;;;;;5.60;1.07;;;12.50;99.90;;;;;;7283321;19;20661;-76
2023/03/27 08:26:12;;;;;;;10.73;1.37;;;11.20;99.90;;;;;;7180448;19;2004819;-75
2023/03/27 08:28:52;;;;;;;4.53;0.60;;;9.90;99.90;;;;;;7282043;19;20185;-75
2023/03/27 08:31:19;;;;;;;5.87;0.70;;;8.20;99.90;;;;;;7281437;19;20212;-76
2023/03/27 08:33:45;;;;;;;3.93;0.80;;;7.60;99.90;;;;;;7281078;19;20284;-76
2023/03/27 08:36:21;;;;;;;4.00;1.00;;;7.50;99.90;;;;;;7282310;19;20253;-75
2023/03/27 08:38:50;;;;;;;6.80;0.83;;;7.70;99.90;;;;;;7281957;19;20193;-74
2023/03/27 08:41:37;;;;;;;4.63;0.70;;;7.80;99.90;;;;;;7281268;19;20201;-75
2023/03/27 08:44:14;;;;;;;4.80;1.10;;;8.30;99.90;;;;;;7179027;19;2006235;-75
2023/03/27 08:46:54;;;;;;;4.73;0.90;;;9.40;99.90;;;;;;7280866;19;20208;-76
2023/03/27 08:49:21;;;;;;;2.43;0.80;;;11.70;99.90;;;;;;7282154;19;20190;-76
2023/03/27 08:52:15;;;;;;;4.43;0.97;;;13.60;99.90;;;;;;7182830;19;2004425;-76
2023/03/27 08:54:46;;;;;;;6.60;0.83;;;15.20;99.90;;;;;;7287087;19;20254;-76
2023/03/27 08:57:19;;;;;;;4.03;0.80;;;17.30;99.90;;;;;;7288491;19;20276;-76
2023/03/27 08:59:47;;;;;;;5.30;0.90;;;17.00;99.90;;;;;;7287431;19;20255;-75
2023/03/27 09:02:28;;;;;;;4.50;0.97;;;16.90;99.90;;;;;;7287711;19;20188;-76
2023/03/27 09:05:05;;;;;;;4.20;1.10;;;18.20;99.90;;;;;;7287506;19;20180;-76
2023/03/27 09:07:33;;;;;;;10.47;1.60;;;18.20;99.90;;;;;;7184547;19;2004361;-76
2023/03/27 09:10:43;;;;;;;7.20;1.30;;;16.30;99.90;;;;;;7288032;19;20684;-76
2023/03/27 09:13:24;;;;;;;7.63;1.50;;;17.20;99.90;;;;;;7184790;19;2004682;-75
2023/03/27 09:16:22;;;;;;;6.57;1.40;;;17.30;99.90;;;;;;7288913;19;20199;-76
2023/03/27 09:19:17;;;;;;;6.80;1.70;;;16.60;99.90;;;;;;7185724;19;2004499;-75
2023/03/27 09:21:45;;;;;;;7.63;1.87;;;14.50;99.90;;;;;;7185300;19;2006554;-76
2023/03/27 09:24:32;;;;;;;11.77;1.60;;;12.50;99.90;;;;;;7288882;19;20264;-77
2023/03/27 09:27:33;;;;;;;8.93;1.73;;;11.00;99.90;;;;;;7185617;19;2004608;-75
2023/03/27 09:30:10;;;;;;;7.83;1.60;;;9.90;99.90;;;;;;7182853;19;2004556;-76
2023/03/27 09:32:55;;;;;;;7.17;1.70;;;9.80;99.90;;;;;;7286610;19;20190;-76
2023/03/27 09:35:22;;;;;;;8.97;1.40;;;9.90;99.90;;;;;;7286066;19;20704;-77
2023/03/27 09:38:09;;;;;;;8.70;1.50;;;10.10;99.90;;;;;;7287972;19;20201;-75
2023/03/27 09:40:44;;;;;;;12.87;3.40;;;10.20;99.90;;;;;;7182493;19;2004591;-76
2023/03/27 09:43:21;;;;;;;11.07;2.07;;;10.10;99.90;;;;;;7286553;19;20216;-76
2023/03/27 09:45:51;;;;;;;12.07;1.57;;;10.40;99.90;;;;;;7286849;19;20179;-75
2023/03/27 09:48:37;;;;;;;7.20;1.70;;;10.30;99.90;;;;;;7286143;19;20202;-76
2023/03/27 09:51:36;;;;;;;10.10;1.50;;;10.10;99.90;;;;;;7183843;19;2004854;-75
2023/03/27 09:54:03;;;;;;;7.23;1.63;;;10.00;99.90;;;;;;7183354;19;2004439;-75
2023/03/27 09:56:45;;;;;;;10.00;2.20;;;9.50;99.90;;;;;;7286112;19;20282;-76
2023/03/27 09:59:31;;;;;;;12.83;1.70;;;9.50;99.90;;;;;;7286147;19;20193;-76
2023/03/27 10:02:23;;;;;;;10.13;2.63;;;9.70;99.90;;;;;;7183292;19;2004632;-75
2023/03/27 10:05:01;;;;;;;8.50;2.80;;;10.20;99.90;;;;;;7287274;19;20599;-76
2023/03/27 10:07:32;;;;;;;8.50;2.03;;;10.50;99.90;;;;;;7183088;19;2004836;-75
2023/03/27 10:10:18;;;;;;;7.70;1.67;;;10.50;99.90;;;;;;7285104;19;20658;-76
2023/03/27 10:13:04;;;;;;;9.57;1.80;;;10.50;99.90;;;;;;7183356;19;2004665;-76
2023/03/27 10:15:38;;;;;;;8.77;2.20;;;10.70;99.90;;;;;;7283856;19;20210;-76
2023/03/27 10:18:27;;;;;;;8.93;2.00;;;11.10;99.90;;;;;;7285069;19;20194;-76
2023/03/27 10:21:10;;;;;;;10.97;2.00;;;11.60;99.90;;;;;;7182799;19;2004678;-76
2023/03/27 10:23:42;;;;;;;10.67;2.10;;;13.20;99.90;;;;;;7286724;19;20643;-76
2023/03/27 10:26:17;;;;;;;11.77;3.63;;;13.30;99.90;;;;;;7285404;19;20195;-76
2023/03/27 10:28:50;;;;;;;8.57;2.40;;;14.90;99.90;;;;;;7285657;19;20534;-76
2023/03/27 10:31:32;;;;;;;7.73;1.50;;;15.50;99.90;;;;;;7292189;19;20194;-75
2023/03/27 10:34:28;;;;;;;12.63;1.60;;;15.00;99.90;;;;;;7186431;19;2004958;-76
2023/03/27 10:37:29;;;;;;;7.97;1.83;;;15.50;99.90;;;;;;7183070;19;2004596;-76
2023/03/27 10:40:18;;;;;;;11.53;1.80;;;15.40;99.90;;;;;;7183596;19;2004508;-76
2023/03/27 10:42:47;;;;;;;6.60;1.37;;;16.00;99.90;;;;;;7283873;19;20200;-75
2023/03/27 10:45:19;;;;;;;9.57;1.63;;;14.60;99.90;;;;;;7285233;19;20200;-76
2023/03/27 10:47:49;;;;;;;6.10;1.30;;;12.80;99.90;;;;;;7283314;19;20243;-76
2023/03/27 10:50:29;;;;;;;5.90;1.17;;;11.10;99.90;;;;;;7283925;19;20201;-76
2023/03/27 10:53:00;;;;;;;9.63;1.40;;;10.30;99.90;;;;;;7284583;19;20551;-76
2023/03/27 10:56:01;;;;;;;6.10;1.17;;;9.80;99.90;;;;;;7182071;19;2004590;-75
2023/03/27 10:58:46;;;;;;;6.37;0.80;;;9.50;99.90;;;;;;7181682;19;2004820;-76
2023/03/27 11:01:26;;;;;;;5.93;1.07;;;10.60;99.90;;;;;;7284029;19;20193;-76
2023/03/27 11:04:15;;;;;;;8.20;1.17;;;11.30;99.90;;;;;;7285358;19;20191;-76
2023/03/27 11:06:57;;;;;;;3.83;1.10;;;11.50;99.90;;;;;;7181774;19;2004802;-76
2023/03/27 11:09:33;;;;;;;7.00;1.17;;;11.70;99.90;;;;;;7282339;19;20188;-76
2023/03/27 11:12:09;;;;;;;6.03;1.27;;;11.50;99.90;;;;;;7182021;19;2004575;-75
2023/03/27 11:14:58;;;;;;;8.23;1.50;;;11.30;99.90;;;;;;7283148;19;20198;-76
2023/03/27 11:18:10;;;;;;;7.97;1.60;;;11.70;99.90;;;;;;7284704;19;20185;-75
2023/03/27 11:20:50;;;;;;;7.53;1.40;;;12.50;99.90;;;;;;7180999;19;2004540;-76
2023/03/27 11:23:38;;;;;;;11.13;1.80;;;13.70;99.90;;;;;;7284091;19;20276;-75
2023/03/27 11:26:17;;;;;;;7.83;1.40;;;13.30;99.90;;;;;;7181885;19;2004626;-76
2023/03/27 11:28:54;;;;;;;9.57;1.60;;;13.20;99.90;;;;;;7283229;19;20180;-76
2023/03/27 11:31:44;;;;;;;8.50;1.47;;;12.20;99.90;;;;;;7284740;19;20187;-75
2023/03/27 11:34:32;;;;;;;5.67;1.20;;;10.50;99.90;;;;;;7180840;19;2004582;-76
2023/03/27 11:37:52;;;;;;;8.23;1.03;;;9.70;99.90;;;;;;7182388;19;2004676;-76
2023/03/27 11:40:22;;;;;;;7.37;1.20;;;9.00;99.90;;;;;;7181434;19;2004746;-76
2023/03/27 11:42:55;;;;;;;6.37;1.10;;;8.60;99.90;;;;;;7284020;19;20188;-77
2023/03/27 11:45:26;;;;;;;4.87;0.90;;;8.60;99.90;;;;;;7284101;19;20666;-76
2023/03/27 11:48:28;;;;;;;4.97;1.00;;;9.00;99.90;;;;;;7283202;19;20280;-76
2023/03/27 11:51:04;;;;;;;9.10;1.10;;;9.60;99.90;;;;;;7180474;19;2004797;-76
2023/03/27 11:53:47;;;;;;;9.03;1.00;;;10.00;99.90;;;;;;7178302;19;2004603;-76
2023/03/27 11:56:39;;;;;;;7.73;1.10;;;10.60;99.90;;;;;;7282897;19;20202;-76
2023/03/27 11:59:34;;;;;;;9.00;1.53;;;11.00;99.90;;;;;;7179563;19;2004954;-76
2023/03/27 12:02:21;;;;;;;8.53;1.30;;;12.20;99.90;;;;;;7179881;19;2004676;-75
2023/03/27 12:05:02;;;;;;;4.57;1.00;;;13.60;99.90;;;;;;7282574;19;20646;-76
2023/03/27 12:08:04;;;;;;;4.93;1.07;;;15.40;99.90;;;;;;7178440;19;2004546;-76
2023/03/27 12:10:36;;;;;;;9.53;1.50;;;15.40;99.90;;;;;;7260626;19;20264;-75
2023/03/27 12:13:34;;;;;;;9.23;1.70;;;14.60;99.90;;;;;;7281179;19;20532;-75
2023/03/27 12:16:26;;;;;;;4.47;1.20;;;13.80;99.90;;;;;;7178414;19;2004777;-76
2023/03/27 12:19:37;;;;;;;7.47;1.20;;;13.60;99.90;;;;;;7260300;19;20189;-76
2023/03/27 12:22:52;;;;;;;11.00;2.00;;;13.60;99.90;;;;;;7180281;19;2004397;-76
2023/03/27 12:26:04;;;;;;;7.50;1.40;;;14.40;99.90;;;;;;7080421;19;2004585;-76
2023/03/27 12:29:06;;;;;;;6.07;1.23;;;14.30;99.90;;;;;;7186051;19;2004832;-76
2023/03/27 12:32:07;;;;;;;5.03;1.10;;;13.00;99.90;;;;;;7187260;19;2004635;-76
2023/03/27 12:34:49;;;;;;;6.50;1.30;;;11.70;99.90;;;;;;7186506;19;2006245;-76
2023/03/27 12:37:20;;;;;;;7.07;1.20;;;10.80;99.90;;;;;;7289925;19;20234;-76
2023/03/27 12:39:57;;;;;;;6.33;1.43;;;10.10;99.90;;;;;;7288296;19;20213;-76
2023/03/27 12:43:05;;;;;;;9.40;1.23;;;9.90;99.90;;;;;;7287642;19;20208;-77
2023/03/27 12:45:31;;;;;;;11.30;1.63;;;9.80;99.90;;;;;;7082473;19;2004818;-77
2023/03/27 12:48:15;;;;;;;9.53;2.00;;;9.90;99.90;;;;;;7289602;19;20191;-75
2023/03/27 12:50:52;;;;;;;10.37;1.60;;;9.60;99.90;;;;;;7286980;19;20202;-76
2023/03/27 12:53:38;;;;;;;10.33;1.87;;;9.30;99.90;;;;;;7287681;19;20718;-76
2023/03/27 12:56:15;;;;;;;9.60;1.80;;;9.20;99.90;;;;;;7184662;19;2004623;-76
2023/03/27 12:58:44;;;;;;;7.13;1.43;;;9.60;99.90;;;;;;7286796;19;20190;-76
2023/03/27 13:01:33;;;;;;;9.43;2.20;;;9.90;99.90;;;;;;7288557;19;20249;-76
2023/03/27 13:04:16;;;;;;;7.63;1.67;;;10.10;99.90;;;;;;7185184;19;2004619;-76
2023/03/27 13:06:56;;;;;;;5.30;1.20;;;10.20;99.90;;;;;;7288138;19;20208;-75
2023/03/27 13:09:59;;;;;;;5.13;1.23;;;10.40;99.90;;;;;;7184809;19;2004675;-76
2023/03/27 13:12:48;;;;;;;8.57;1.47;;;10.70;99.90;;;;;;7275847;19;20719;-75
2023/03/27 13:15:14;;;;;;;7.90;1.57;;;10.90;99.90;;;;;;7287065;19;20188;-76
2023/03/27 13:17:49;;;;;;;6.03;1.47;;;10.60;99.90;;;;;;7288145;19;20194;-76
2023/03/27 13:20:45;;;;;;;8.07;1.77;;;10.50;99.90;;;;;;7287342;19;20189;-76
2023/03/27 13:23:35;;;;;;;11.13;1.80;;;10.50;99.90;;;;;;7185236;19;2004748;-77
2023/03/27 13:26:12;;;;;;;8.70;1.57;;;10.30;99.90;;;;;;7184142;19;2004450;-75
2023/03/27 13:28:50;;;;;;;7.00;1.00;;;10.30;99.90;;;;;;7286604;19;20645;-75
2023/03/27 13:31:44;;;;;;;6.37;1.07;;;10.30;99.90;;;;;;7286439;19;20278;-76
2023/03/27 13:34:33;;;;;;;9.87;1.60;;;10.50;99.90;;;;;;7080752;19;2004530;-75
2023/03/27 13:37:08;;;;;;;6.47;1.07;;;10.40;99.90;;;;;;7286588;19;20196;-76